Weather reports worldwide

Advertisment
Elgoibar, Spain (8036): temperature & dewpoint: 16.02.2019 22:00:00 - 22.02.2019 22:00:00 (CET)Elgoibar, Spain (8036): wind speed & gusts: 16.02.2019 22:00:00 - 22.02.2019 22:00:00 (CET)Elgoibar, Spain (8036): wind direction: 16.02.2019 22:00:00 - 22.02.2019 22:00:00 (CET)Elgoibar, Spain (8036): reduced air pressure: 16.02.2019 22:00:00 - 22.02.2019 22:00:00 (CET)Elgoibar, Spain (8036): precipitation: 16.02.2019 22:00:00 - 22.02.2019 22:00:00 (CET)
Date & Time tt [°C] td [°C] ff [km/h] ff [kn] fx [km/h] fx [kn] dd ppp [hPa] rr [mm]
22.02.2019 22:00:00 9,4 3,4 2 1 9 5 S 1029,2 0,0
22.02.2019 21:00:00 10,6 3,6 2 1 11 6 SSW 1029,1 0,0
22.02.2019 20:00:00 12,3 3,9 4 2 9 5 SW 1028,8 0,0
22.02.2019 19:00:00 14,5 3,6 0 0 9 5 E 1028,5 -
22.02.2019 18:00:00 17,5 3,8 5 3 13 7 SSE 1027,8 0,0
22.02.2019 17:00:00 19,9 4,8 5 3 16 9 NNW 1027,7 0,0
22.02.2019 16:00:00 20,5 5,0 8 4 16 9 NNW 1027,3 0,0
22.02.2019 15:00:00 22,3 5,6 3 2 8 4 SSW 1027,3 0,0
22.02.2019 14:00:00 21,4 5,8 4 2 14 7 WSW 1028,1 0,0
22.02.2019 13:00:00 19,8 6,5 4 2 10 5 SSW 1029,0 -
22.02.2019 12:00:00 17,2 7,3 1 0 8 5 SW 1030,2 0,0
22.02.2019 11:00:00 13,0 7,4 1 1 9 5 ENE 1030,9 0,0
22.02.2019 10:00:00 8,7 5,1 4 2 14 8 SSW 1031,7 0,0
22.02.2019 09:00:00 6,2 3,8 5 3 22 12 SSW 1031,6 0,0
22.02.2019 08:00:00 5,5 3,0 11 6 27 15 SW 1031,3 0,0
22.02.2019 07:00:00 5,9 3,4 14 7 29 16 SSW 1030,8 -
22.02.2019 06:00:00 6,0 3,4 10 5 23 12 SSW 1030,9 0,0
22.02.2019 05:00:00 6,7 3,6 13 7 23 12 SSW 1030,7 0,0
22.02.2019 04:00:00 6,7 3,6 8 5 21 11 SSW 1030,8 0,0
22.02.2019 03:00:00 7,5 3,9 11 6 22 12 SSW 1031,0 0,0
22.02.2019 02:00:00 8,0 4,3 8 4 25 13 SSW 1030,9 0,0
22.02.2019 01:00:00 8,2 4,3 7 4 21 11 SSW 1030,8 -
22.02.2019 00:00:00 8,6 4,3 0 0 16 8 NW 1030,4 0,0
21.02.2019 23:00:00 9,2 4,5 2 1 13 7 SSW 1030,2 0,0
21.02.2019 22:00:00 10,3 4,8 6 3 14 8 SSW 1029,6 0,0
21.02.2019 21:00:00 10,7 4,3 1 0 6 3 SSW 1028,8 0,0
21.02.2019 20:00:00 12,3 4,5 0 0 6 4 W 1028,1 0,0
21.02.2019 19:00:00 14,2 4,5 0 0 6 3 N 1027,0 -
21.02.2019 18:00:00 16,8 4,8 1 1 9 5 SE 1026,0 0,0
21.02.2019 17:00:00 18,9 5,0 5 3 23 12 S 1025,7 0,0
21.02.2019 16:00:00 20,1 4,5 10 5 25 14 SW 1025,6 0,0
21.02.2019 15:00:00 20,3 5,5 5 3 31 17 SW 1025,4 0,0
21.02.2019 14:00:00 19,4 5,8 8 5 27 14 WSW 1025,7 0,0
21.02.2019 13:00:00 18,7 6,5 4 2 21 11 SSW 1026,0 -
21.02.2019 12:00:00 16,6 6,7 4 2 22 12 SW 1026,6 0,0
21.02.2019 11:00:00 12,9 5,8 13 7 29 16 SW 1026,8 0,0
21.02.2019 10:00:00 9,7 4,6 16 8 29 15 SW 1027,1 0,0
21.02.2019 09:00:00 7,5 3,9 13 7 29 16 SW 1026,9 0,0
21.02.2019 08:00:00 6,7 3,8 10 5 27 15 SW 1026,0 0,0
21.02.2019 07:00:00 6,1 3,9 5 3 17 9 SW 1025,8 -
21.02.2019 06:00:00 5,3 3,2 3 2 27 14 SW 1025,8 0,0
21.02.2019 05:00:00 6,0 3,8 12 6 29 15 SW 1025,3 0,0
21.02.2019 04:00:00 6,6 4,3 13 7 26 14 SW 1025,6 0,0
21.02.2019 03:00:00 6,1 4,1 7 4 18 10 S 1025,9 0,0
21.02.2019 02:00:00 6,3 3,9 4 2 14 8 SSW 1025,6 0,0
21.02.2019 01:00:00 7,1 4,6 4 2 16 9 SW 1025,5 -
21.02.2019 00:00:00 6,9 4,1 1 0 11 6 SSE 1025,2 0,0
20.02.2019 23:00:00 7,6 4,5 1 0 10 5 SSE 1025,2 0,0
20.02.2019 22:00:00 8,2 4,5 0 0 5 3 N 1024,9 0,0
20.02.2019 21:00:00 9,4 4,6 1 1 8 5 SSW 1024,2 0,0
20.02.2019 20:00:00 11,1 5,0 0 0 8 4 N 1023,6 0,0
20.02.2019 19:00:00 12,7 5,6 1 1 16 8 E 1022,9 -
20.02.2019 18:00:00 14,8 4,8 9 5 15 8 N 1021,9 0,0
20.02.2019 17:00:00 17,9 4,8 4 2 21 11 WSW 1021,4 0,0
20.02.2019 16:00:00 18,2 4,6 12 6 26 14 SW 1021,4 0,0
20.02.2019 15:00:00 18,4 5,0 13 7 23 13 SW 1021,5 0,0
20.02.2019 14:00:00 17,9 6,1 6 4 20 11 SSW 1021,7 0,0
20.02.2019 13:00:00 16,9 7,0 4 2 23 12 SW 1022,4 -
20.02.2019 12:00:00 15,3 6,2 6 3 20 11 SW 1022,6 0,0
20.02.2019 11:00:00 12,0 6,5 6 3 21 12 SSW 1023,0 0,0
20.02.2019 10:00:00 8,0 5,1 10 5 24 13 SSW 1022,9 0,0
20.02.2019 09:00:00 5,1 3,6 13 7 26 14 SSW 1022,6 0,0
20.02.2019 08:00:00 4,8 3,4 12 6 26 14 SW 1021,8 0,0
20.02.2019 07:00:00 4,7 3,6 14 8 26 14 SSW 1021,3 -
20.02.2019 06:00:00 4,8 3,8 13 7 25 13 SSW 1021,0 0,0
20.02.2019 05:00:00 5,1 4,1 14 8 28 15 SW 1020,8 0,0
20.02.2019 04:00:00 5,3 4,5 12 6 29 16 SSW 1020,9 0,0
20.02.2019 03:00:00 5,8 4,8 9 5 23 13 SSW 1020,9 0,0
20.02.2019 02:00:00 6,0 5,1 12 6 25 13 SSW 1021,2 0,0
20.02.2019 01:00:00 6,2 5,5 8 4 17 9 SSW 1021,3 -
20.02.2019 00:00:00 5,7 4,6 1 1 10 5 ESE 1021,4 0,0
19.02.2019 23:00:00 6,1 5,0 0 0 9 5 N 1021,4 0,0
19.02.2019 22:00:00 6,7 5,1 0 0 0 0 N 1021,3 0,0
19.02.2019 21:00:00 7,6 5,8 0 0 0 0 N 1020,9 0,0
19.02.2019 20:00:00 8,6 6,1 0 0 5 3 N 1020,9 0,0
19.02.2019 19:00:00 9,9 6,2 2 1 9 5 ENE 1020,2 -
19.02.2019 18:00:00 10,9 6,7 4 2 16 9 N 1019,5 0,0
19.02.2019 17:00:00 11,2 6,7 10 6 18 10 NNW 1019,9 0,0
19.02.2019 16:00:00 12,4 7,1 8 4 15 8 N 1019,8 0,0
19.02.2019 15:00:00 14,4 6,5 3 2 8 5 SSE 1020,2 0,0
19.02.2019 14:00:00 13,2 6,2 1 0 10 5 SW 1021,0 0,0
19.02.2019 13:00:00 11,7 6,4 5 3 16 9 SSW 1022,1 -
19.02.2019 12:00:00 10,4 6,1 10 5 17 9 SW 1023,0 0,0
19.02.2019 11:00:00 9,4 6,5 11 6 20 11 SW 1023,0 0,0
19.02.2019 10:00:00 9,1 6,8 9 5 16 8 SW 1023,1 0,0
19.02.2019 09:00:00 8,4 6,5 3 2 11 6 SW 1022,8 0,0
19.02.2019 08:00:00 8,3 6,2 1 1 6 4 WSW 1021,9 0,0
19.02.2019 07:00:00 8,4 6,4 3 2 12 7 SW 1021,7 -
19.02.2019 06:00:00 8,4 6,4 7 4 14 8 SW 1021,9 0,0
19.02.2019 05:00:00 8,7 6,2 6 3 13 7 SW 1022,0 0,0
19.02.2019 04:00:00 8,8 6,5 5 3 11 6 SSW 1022,0 0,0
19.02.2019 03:00:00 8,4 6,4 0 0 1 1 N 1022,3 0,0
19.02.2019 02:00:00 8,1 6,1 1 1 8 4 SE 1022,1 0,0
19.02.2019 01:00:00 7,9 5,9 4 2 9 5 SW 1022,0 -
19.02.2019 00:00:00 7,8 5,8 3 2 8 4 SW 1021,8 0,0
18.02.2019 23:00:00 7,7 5,5 0 0 7 4 ESE 1021,6 0,0
18.02.2019 22:00:00 8,0 5,6 0 0 2 1 N 1021,6 0,0
18.02.2019 21:00:00 8,2 5,6 1 1 4 2 WSW 1021,0 0,0
18.02.2019 20:00:00 9,4 6,1 0 0 9 5 N 1020,0 0,0
18.02.2019 19:00:00 10,9 6,7 5 3 16 9 N 1019,0 -
18.02.2019 18:00:00 11,6 4,3 9 5 19 11 N 1018,1 0,0
18.02.2019 17:00:00 12,2 3,6 8 5 20 11 N 1017,6 0,0
18.02.2019 16:00:00 13,2 3,6 10 6 25 14 N 1017,5 0,0
18.02.2019 15:00:00 14,6 3,4 11 6 23 12 N 1016,9 0,0
18.02.2019 14:00:00 17,6 2,7 14 7 24 13 E 1017,1 0,0
18.02.2019 13:00:00 17,8 3,6 3 1 11 6 E 1017,7 -
18.02.2019 12:00:00 16,3 2,7 3 1 12 6 WSW 1018,4 0,0
18.02.2019 11:00:00 14,5 2,1 4 2 20 11 SW 1018,9 0,0
18.02.2019 10:00:00 12,0 0,6 9 5 19 11 SW 1019,2 0,0
18.02.2019 09:00:00 10,9 -0,3 6 3 35 19 SSW 1019,0 0,0
18.02.2019 08:00:00 10,3 -0,5 4 2 19 10 SSW 1018,5 0,0
18.02.2019 07:00:00 11,0 -0,5 4 2 22 12 WSW 1018,2 -
18.02.2019 06:00:00 11,7 -0,5 4 2 38 21 S 1018,3 0,0
18.02.2019 05:00:00 12,6 0,4 15 8 48 26 SE 1017,5 0,0
18.02.2019 04:00:00 12,3 1,1 13 7 22 12 SSE 1017,8 0,0
18.02.2019 03:00:00 11,7 0,4 13 7 18 10 SSW 1018,0 0,0
18.02.2019 02:00:00 11,5 0,0 6 3 15 8 SSW 1017,8 0,0
18.02.2019 01:00:00 12,5 -1,4 4 2 22 12 SSE 1017,6 -
18.02.2019 00:00:00 14,6 -0,7 8 5 54 29 WNW 1017,6 0,0
17.02.2019 23:00:00 15,4 -0,7 19 10 46 25 E 1017,7 0,0
17.02.2019 22:00:00 15,3 -1,7 3 2 46 25 WSW 1017,8 0,0
17.02.2019 21:00:00 16,1 -1,4 19 10 47 25 E 1017,5 0,0
17.02.2019 20:00:00 15,7 -2,0 6 3 31 17 SE 1017,5 0,0
17.02.2019 19:00:00 16,7 -1,4 16 9 29 15 SE 1017,4 -
17.02.2019 18:00:00 17,2 -1,0 14 8 28 15 ESE 1017,1 0,0
17.02.2019 17:00:00 18,5 -1,0 13 7 31 17 E 1017,1 0,0
17.02.2019 16:00:00 19,6 -1,0 5 3 39 21 N 1017,3 0,0
17.02.2019 15:00:00 20,4 -1,0 2 1 25 14 NNE 1017,9 0,0
17.02.2019 14:00:00 19,1 -1,0 9 5 33 18 NW 1018,8 0,0
17.02.2019 13:00:00 19,0 -1,0 10 5 30 16 ESE 1019,7 -
17.02.2019 12:00:00 18,3 -1,0 4 2 33 18 NNE 1020,6 0,0
17.02.2019 11:00:00 16,4 -2,7 9 5 34 19 SW 1020,6 0,0
17.02.2019 10:00:00 14,4 -3,0 14 8 39 21 WSW 1021,3 0,0
17.02.2019 09:00:00 12,9 -3,9 17 9 40 21 SW 1021,4 0,0
17.02.2019 08:00:00 10,6 -3,9 9 5 36 19 SSW 1021,3 0,0
17.02.2019 07:00:00 10,7 -4,2 13 7 26 14 SW 1021,5 -
17.02.2019 06:00:00 12,2 -3,6 15 8 35 19 SW 1021,3 0,0
17.02.2019 05:00:00 12,5 -3,0 6 4 26 14 SSW 1021,0 0,0
17.02.2019 04:00:00 13,1 -2,5 11 6 26 14 SW 1021,0 0,0
17.02.2019 03:00:00 13,8 -2,2 10 6 27 15 SW 1020,8 0,0
17.02.2019 02:00:00 14,9 -1,7 5 3 34 18 W 1021,2 0,0
17.02.2019 01:00:00 15,5 -1,7 3 2 41 22 ESE 1021,3 -
17.02.2019 00:00:00 15,7 -1,0 9 5 61 33 E 1020,8 0,0
16.02.2019 23:00:00 15,6 -0,7 16 9 43 23 E 1021,3 0,0
16.02.2019 22:00:00 14,7 -0,3 3 1 18 10 NW 1021,6 0,0

tt = temperature
td = dewpoint
ff = wind speed
fx = gusts
dd = wind direction
ppp = reduced air pressure
rr = precipitation

Next stations